sensor_id;sensor_type;location;lat;lon;timestamp;P1;durP1;ratioP1;P2;durP2;ratioP2
7835;SDS011;3963;42.658;23.298;2023-10-09T00:01:01;8.30;;;2.57;;
7835;SDS011;3963;42.658;23.298;2023-10-09T00:03:30;6.87;;;2.80;;
7835;SDS011;3963;42.658;23.298;2023-10-09T00:05:57;6.37;;;2.80;;
7835;SDS011;3963;42.658;23.298;2023-10-09T00:08:23;6.13;;;2.73;;
7835;SDS011;3963;42.658;23.298;2023-10-09T00:10:55;6.73;;;2.43;;
7835;SDS011;3963;42.658;23.298;2023-10-09T00:13:23;8.50;;;3.10;;
7835;SDS011;3963;42.658;23.298;2023-10-09T00:15:54;7.00;;;2.27;;
7835;SDS011;3963;42.658;23.298;2023-10-09T00:18:25;5.93;;;2.93;;
7835;SDS011;3963;42.658;23.298;2023-10-09T00:20:56;7.67;;;2.30;;
7835;SDS011;3963;42.658;23.298;2023-10-09T00:23:26;7.10;;;2.37;;
7835;SDS011;3963;42.658;23.298;2023-10-09T00:25:53;6.17;;;2.63;;
7835;SDS011;3963;42.658;23.298;2023-10-09T00:28:33;9.27;;;2.47;;
7835;SDS011;3963;42.658;23.298;2023-10-09T00:31:02;9.27;;;3.00;;
7835;SDS011;3963;42.658;23.298;2023-10-09T00:33:33;6.53;;;2.47;;
7835;SDS011;3963;42.658;23.298;2023-10-09T00:36:02;4.60;;;2.40;;
7835;SDS011;3963;42.658;23.298;2023-10-09T00:38:35;7.03;;;2.50;;
7835;SDS011;3963;42.658;23.298;2023-10-09T00:41:03;5.53;;;2.00;;
7835;SDS011;3963;42.658;23.298;2023-10-09T00:43:36;3.77;;;2.30;;
7835;SDS011;3963;42.658;23.298;2023-10-09T00:46:03;4.63;;;2.40;;
7835;SDS011;3963;42.658;23.298;2023-10-09T00:48:34;11.67;;;3.30;;
7835;SDS011;3963;42.658;23.298;2023-10-09T00:51:07;5.87;;;2.93;;
7835;SDS011;3963;42.658;23.298;2023-10-09T00:53:43;9.37;;;3.17;;
7835;SDS011;3963;42.658;23.298;2023-10-09T00:56:09;8.17;;;2.77;;
7835;SDS011;3963;42.658;23.298;2023-10-09T00:58:45;6.07;;;3.17;;
7835;SDS011;3963;42.658;23.298;2023-10-09T01:01:13;7.70;;;2.97;;
7835;SDS011;3963;42.658;23.298;2023-10-09T01:03:41;3.77;;;2.53;;
7835;SDS011;3963;42.658;23.298;2023-10-09T01:06:10;5.03;;;2.20;;
7835;SDS011;3963;42.658;23.298;2023-10-09T01:08:46;4.43;;;1.97;;
7835;SDS011;3963;42.658;23.298;2023-10-09T01:11:21;4.17;;;2.07;;
7835;SDS011;3963;42.658;23.298;2023-10-09T01:13:50;6.80;;;2.27;;
7835;SDS011;3963;42.658;23.298;2023-10-09T01:16:25;3.13;;;1.83;;
7835;SDS011;3963;42.658;23.298;2023-10-09T01:18:52;3.17;;;1.87;;
7835;SDS011;3963;42.658;23.298;2023-10-09T01:21:23;3.93;;;2.10;;
7835;SDS011;3963;42.658;23.298;2023-10-09T01:23:53;4.37;;;2.00;;
7835;SDS011;3963;42.658;23.298;2023-10-09T01:26:29;5.47;;;2.00;;
7835;SDS011;3963;42.658;23.298;2023-10-09T01:28:59;4.30;;;1.77;;
7835;SDS011;3963;42.658;23.298;2023-10-09T01:31:25;3.77;;;1.93;;
7835;SDS011;3963;42.658;23.298;2023-10-09T01:33:52;4.60;;;2.10;;
7835;SDS011;3963;42.658;23.298;2023-10-09T01:36:20;9.07;;;2.53;;
7835;SDS011;3963;42.658;23.298;2023-10-09T01:38:58;2.20;;;1.63;;
7835;SDS011;3963;42.658;23.298;2023-10-09T01:41:25;5.77;;;2.20;;
7835;SDS011;3963;42.658;23.298;2023-10-09T01:43:52;3.70;;;1.90;;
7835;SDS011;3963;42.658;23.298;2023-10-09T01:46:26;6.37;;;1.90;;
7835;SDS011;3963;42.658;23.298;2023-10-09T01:48:52;2.63;;;1.70;;
7835;SDS011;3963;42.658;23.298;2023-10-09T01:51:19;3.77;;;1.80;;
7835;SDS011;3963;42.658;23.298;2023-10-09T01:53:46;6.27;;;2.17;;
7835;SDS011;3963;42.658;23.298;2023-10-09T01:56:23;4.53;;;2.23;;
7835;SDS011;3963;42.658;23.298;2023-10-09T01:58:50;2.77;;;2.00;;
7835;SDS011;3963;42.658;23.298;2023-10-09T02:01:18;4.97;;;2.27;;
7835;SDS011;3963;42.658;23.298;2023-10-09T02:03:46;4.67;;;2.13;;
7835;SDS011;3963;42.658;23.298;2023-10-09T02:06:16;7.80;;;2.20;;
7835;SDS011;3963;42.658;23.298;2023-10-09T02:08:54;4.63;;;2.20;;
7835;SDS011;3963;42.658;23.298;2023-10-09T02:11:23;5.40;;;1.87;;
7835;SDS011;3963;42.658;23.298;2023-10-09T02:14:03;5.47;;;2.53;;
7835;SDS011;3963;42.658;23.298;2023-10-09T02:16:41;5.90;;;2.37;;
7835;SDS011;3963;42.658;23.298;2023-10-09T02:19:07;5.20;;;2.10;;
7835;SDS011;3963;42.658;23.298;2023-10-09T02:21:54;4.90;;;1.90;;
7835;SDS011;3963;42.658;23.298;2023-10-09T02:24:21;4.83;;;2.23;;
7835;SDS011;3963;42.658;23.298;2023-10-09T02:27:08;4.67;;;2.23;;
7835;SDS011;3963;42.658;23.298;2023-10-09T02:29:36;4.43;;;1.90;;
7835;SDS011;3963;42.658;23.298;2023-10-09T02:32:03;4.70;;;2.07;;
7835;SDS011;3963;42.658;23.298;2023-10-09T02:34:39;3.10;;;2.23;;
7835;SDS011;3963;42.658;23.298;2023-10-09T02:37:06;4.43;;;1.60;;
7835;SDS011;3963;42.658;23.298;2023-10-09T02:39:36;6.63;;;2.10;;
7835;SDS011;3963;42.658;23.298;2023-10-09T02:42:10;5.47;;;1.87;;
7835;SDS011;3963;42.658;23.298;2023-10-09T02:44:48;5.33;;;2.00;;
7835;SDS011;3963;42.658;23.298;2023-10-09T02:47:16;4.57;;;2.87;;
7835;SDS011;3963;42.658;23.298;2023-10-09T02:49:46;2.40;;;1.73;;
7835;SDS011;3963;42.658;23.298;2023-10-09T02:52:13;7.27;;;1.80;;
7835;SDS011;3963;42.658;23.298;2023-10-09T02:54:43;2.37;;;1.60;;
7835;SDS011;3963;42.658;23.298;2023-10-09T02:57:13;4.20;;;2.00;;
7835;SDS011;3963;42.658;23.298;2023-10-09T02:59:48;4.67;;;1.70;;
7835;SDS011;3963;42.658;23.298;2023-10-09T03:02:17;3.90;;;1.67;;
7835;SDS011;3963;42.658;23.298;2023-10-09T03:04:43;4.17;;;1.83;;
7835;SDS011;3963;42.658;23.298;2023-10-09T03:07:10;3.57;;;1.50;;
7835;SDS011;3963;42.658;23.298;2023-10-09T03:09:38;2.73;;;1.57;;
7835;SDS011;3963;42.658;23.298;2023-10-09T03:12:06;4.63;;;1.77;;
7835;SDS011;3963;42.658;23.298;2023-10-09T03:14:36;2.17;;;1.50;;
7835;SDS011;3963;42.658;23.298;2023-10-09T03:17:04;2.30;;;1.70;;
7835;SDS011;3963;42.658;23.298;2023-10-09T03:19:32;2.77;;;1.73;;
7835;SDS011;3963;42.658;23.298;2023-10-09T03:22:02;3.97;;;2.07;;
7835;SDS011;3963;42.658;23.298;2023-10-09T03:24:29;3.67;;;1.93;;
7835;SDS011;3963;42.658;23.298;2023-10-09T03:26:56;4.47;;;1.77;;
7835;SDS011;3963;42.658;23.298;2023-10-09T03:29:23;1.60;;;1.50;;
7835;SDS011;3963;42.658;23.298;2023-10-09T03:31:52;1.97;;;1.33;;
7835;SDS011;3963;42.658;23.298;2023-10-09T03:34:20;2.07;;;1.40;;
7835;SDS011;3963;42.658;23.298;2023-10-09T03:36:47;2.47;;;1.43;;
7835;SDS011;3963;42.658;23.298;2023-10-09T03:39:16;4.30;;;1.50;;
7835;SDS011;3963;42.658;23.298;2023-10-09T03:41:50;2.30;;;1.37;;
7835;SDS011;3963;42.658;23.298;2023-10-09T03:44:16;2.80;;;1.90;;
7835;SDS011;3963;42.658;23.298;2023-10-09T03:46:44;2.03;;;1.60;;
7835;SDS011;3963;42.658;23.298;2023-10-09T03:49:12;5.63;;;1.70;;
7835;SDS011;3963;42.658;23.298;2023-10-09T03:51:47;3.70;;;1.40;;
7835;SDS011;3963;42.658;23.298;2023-10-09T03:54:14;7.17;;;1.50;;
7835;SDS011;3963;42.658;23.298;2023-10-09T03:56:45;3.37;;;2.40;;
7835;SDS011;3963;42.658;23.298;2023-10-09T03:59:15;4.17;;;1.60;;
7835;SDS011;3963;42.658;23.298;2023-10-09T04:01:41;3.67;;;1.50;;
7835;SDS011;3963;42.658;23.298;2023-10-09T04:04:09;2.67;;;1.50;;
7835;SDS011;3963;42.658;23.298;2023-10-09T04:06:40;3.70;;;1.70;;
7835;SDS011;3963;42.658;23.298;2023-10-09T04:09:07;3.20;;;1.83;;
7835;SDS011;3963;42.658;23.298;2023-10-09T04:11:53;4.77;;;1.73;;
7835;SDS011;3963;42.658;23.298;2023-10-09T04:14:43;2.37;;;1.50;;
7835;SDS011;3963;42.658;23.298;2023-10-09T04:17:15;3.37;;;1.50;;
7835;SDS011;3963;42.658;23.298;2023-10-09T04:19:55;5.00;;;1.50;;
7835;SDS011;3963;42.658;23.298;2023-10-09T04:22:37;2.97;;;1.70;;
7835;SDS011;3963;42.658;23.298;2023-10-09T04:25:08;2.23;;;1.30;;
7835;SDS011;3963;42.658;23.298;2023-10-09T04:27:39;3.07;;;1.23;;
7835;SDS011;3963;42.658;23.298;2023-10-09T04:30:06;4.50;;;1.60;;
7835;SDS011;3963;42.658;23.298;2023-10-09T04:32:32;3.07;;;1.80;;
7835;SDS011;3963;42.658;23.298;2023-10-09T04:34:59;4.67;;;1.97;;
7835;SDS011;3963;42.658;23.298;2023-10-09T04:37:47;3.83;;;1.50;;
7835;SDS011;3963;42.658;23.298;2023-10-09T04:40:17;3.47;;;1.77;;
7835;SDS011;3963;42.658;23.298;2023-10-09T04:43:06;5.07;;;1.57;;
7835;SDS011;3963;42.658;23.298;2023-10-09T04:45:35;3.57;;;1.87;;
7835;SDS011;3963;42.658;23.298;2023-10-09T04:48:15;3.17;;;1.70;;
7835;SDS011;3963;42.658;23.298;2023-10-09T04:50:57;2.63;;;1.50;;
7835;SDS011;3963;42.658;23.298;2023-10-09T04:53:48;4.10;;;1.70;;
7835;SDS011;3963;42.658;23.298;2023-10-09T04:56:25;4.83;;;1.50;;
7835;SDS011;3963;42.658;23.298;2023-10-09T04:58:56;3.67;;;1.47;;
7835;SDS011;3963;42.658;23.298;2023-10-09T05:01:28;4.97;;;1.50;;
7835;SDS011;3963;42.658;23.298;2023-10-09T05:04:08;2.70;;;1.50;;
7835;SDS011;3963;42.658;23.298;2023-10-09T05:06:52;1.90;;;1.67;;
7835;SDS011;3963;42.658;23.298;2023-10-09T05:09:22;3.20;;;1.50;;
7835;SDS011;3963;42.658;23.298;2023-10-09T05:11:49;4.23;;;1.70;;
7835;SDS011;3963;42.658;23.298;2023-10-09T05:14:29;2.80;;;1.23;;
7835;SDS011;3963;42.658;23.298;2023-10-09T05:17:05;5.27;;;4.43;;
7835;SDS011;3963;42.658;23.298;2023-10-09T05:19:34;3.10;;;1.60;;
7835;SDS011;3963;42.658;23.298;2023-10-09T05:22:20;1.63;;;1.50;;
7835;SDS011;3963;42.658;23.298;2023-10-09T05:24:56;2.83;;;1.77;;
7835;SDS011;3963;42.658;23.298;2023-10-09T05:27:23;2.43;;;1.43;;
7835;SDS011;3963;42.658;23.298;2023-10-09T05:30:10;3.47;;;1.80;;
7835;SDS011;3963;42.658;23.298;2023-10-09T05:32:50;3.87;;;1.50;;
7835;SDS011;3963;42.658;23.298;2023-10-09T05:35:20;2.00;;;1.50;;
7835;SDS011;3963;42.658;23.298;2023-10-09T05:37:55;1.90;;;1.60;;
7835;SDS011;3963;42.658;23.298;2023-10-09T05:40:28;5.53;;;2.70;;
7835;SDS011;3963;42.658;23.298;2023-10-09T05:42:56;1.67;;;1.40;;
7835;SDS011;3963;42.658;23.298;2023-10-09T05:45:28;3.50;;;1.70;;
7835;SDS011;3963;42.658;23.298;2023-10-09T05:48:12;2.20;;;1.40;;
7835;SDS011;3963;42.658;23.298;2023-10-09T05:51:07;3.37;;;1.60;;
7835;SDS011;3963;42.658;23.298;2023-10-09T05:53:56;3.73;;;1.40;;
7835;SDS011;3963;42.658;23.298;2023-10-09T05:56:38;2.40;;;1.50;;
7835;SDS011;3963;42.658;23.298;2023-10-09T05:59:22;3.67;;;1.70;;
7835;SDS011;3963;42.658;23.298;2023-10-09T06:02:06;3.13;;;2.23;;
7835;SDS011;3963;42.658;23.298;2023-10-09T06:04:50;3.07;;;1.30;;
7835;SDS011;3963;42.658;23.298;2023-10-09T06:07:19;2.47;;;1.50;;
7835;SDS011;3963;42.658;23.298;2023-10-09T06:09:49;3.00;;;1.37;;
7835;SDS011;3963;42.658;23.298;2023-10-09T06:12:18;5.87;;;1.60;;
7835;SDS011;3963;42.658;23.298;2023-10-09T06:15:14;1.50;;;1.20;;
7835;SDS011;3963;42.658;23.298;2023-10-09T06:18:15;2.90;;;1.50;;
7835;SDS011;3963;42.658;23.298;2023-10-09T06:20:59;4.37;;;1.90;;
7835;SDS011;3963;42.658;23.298;2023-10-09T06:23:48;1.97;;;1.30;;
7835;SDS011;3963;42.658;23.298;2023-10-09T06:26:34;3.20;;;1.70;;
7835;SDS011;3963;42.658;23.298;2023-10-09T06:29:02;3.67;;;1.70;;
7835;SDS011;3963;42.658;23.298;2023-10-09T06:31:45;2.87;;;1.40;;
7835;SDS011;3963;42.658;23.298;2023-10-09T06:34:26;2.90;;;1.60;;
7835;SDS011;3963;42.658;23.298;2023-10-09T06:36:58;5.10;;;1.80;;
7835;SDS011;3963;42.658;23.298;2023-10-09T06:39:30;7.00;;;1.70;;
7835;SDS011;3963;42.658;23.298;2023-10-09T06:42:14;4.90;;;1.63;;
7835;SDS011;3963;42.658;23.298;2023-10-09T06:44:58;3.70;;;1.90;;
7835;SDS011;3963;42.658;23.298;2023-10-09T06:47:25;3.53;;;1.73;;
7835;SDS011;3963;42.658;23.298;2023-10-09T06:49:51;1.93;;;1.50;;
7835;SDS011;3963;42.658;23.298;2023-10-09T06:52:31;3.30;;;1.67;;
7835;SDS011;3963;42.658;23.298;2023-10-09T06:55:11;2.47;;;1.60;;
7835;SDS011;3963;42.658;23.298;2023-10-09T06:57:45;3.13;;;2.57;;
7835;SDS011;3963;42.658;23.298;2023-10-09T07:00:15;2.60;;;1.73;;
7835;SDS011;3963;42.658;23.298;2023-10-09T07:02:56;2.60;;;1.77;;
7835;SDS011;3963;42.658;23.298;2023-10-09T07:05:22;2.27;;;1.50;;
7835;SDS011;3963;42.658;23.298;2023-10-09T07:07:56;4.07;;;1.60;;
7835;SDS011;3963;42.658;23.298;2023-10-09T07:10:43;7.03;;;2.00;;
7835;SDS011;3963;42.658;23.298;2023-10-09T07:13:09;2.17;;;1.73;;
7835;SDS011;3963;42.658;23.298;2023-10-09T07:15:41;3.97;;;1.87;;
7835;SDS011;3963;42.658;23.298;2023-10-09T07:18:25;2.37;;;1.67;;
7835;SDS011;3963;42.658;23.298;2023-10-09T07:21:12;3.77;;;1.60;;
7835;SDS011;3963;42.658;23.298;2023-10-09T07:23:43;4.50;;;1.70;;
7835;SDS011;3963;42.658;23.298;2023-10-09T07:26:14;3.67;;;1.90;;
7835;SDS011;3963;42.658;23.298;2023-10-09T07:29:01;2.10;;;1.60;;
7835;SDS011;3963;42.658;23.298;2023-10-09T07:31:42;6.20;;;1.70;;
7835;SDS011;3963;42.658;23.298;2023-10-09T07:34:10;4.03;;;1.80;;
7835;SDS011;3963;42.658;23.298;2023-10-09T07:36:55;7.63;;;1.70;;
7835;SDS011;3963;42.658;23.298;2023-10-09T07:39:21;4.40;;;1.77;;
7835;SDS011;3963;42.658;23.298;2023-10-09T07:41:48;5.30;;;1.60;;
7835;SDS011;3963;42.658;23.298;2023-10-09T07:44:27;2.53;;;1.63;;
7835;SDS011;3963;42.658;23.298;2023-10-09T07:47:09;4.03;;;3.70;;
7835;SDS011;3963;42.658;23.298;2023-10-09T07:50:11;3.50;;;1.60;;
7835;SDS011;3963;42.658;23.298;2023-10-09T07:52:37;2.57;;;1.33;;
7835;SDS011;3963;42.658;23.298;2023-10-09T07:55:08;5.77;;;2.37;;
7835;SDS011;3963;42.658;23.298;2023-10-09T07:57:51;5.60;;;3.47;;
7835;SDS011;3963;42.658;23.298;2023-10-09T08:00:17;8.20;;;1.70;;
7835;SDS011;3963;42.658;23.298;2023-10-09T08:03:15;7.47;;;2.83;;
7835;SDS011;3963;42.658;23.298;2023-10-09T08:05:49;10.67;;;5.23;;
7835;SDS011;3963;42.658;23.298;2023-10-09T08:08:18;2.97;;;1.90;;
7835;SDS011;3963;42.658;23.298;2023-10-09T08:11:08;5.30;;;1.50;;
7835;SDS011;3963;42.658;23.298;2023-10-09T08:13:52;7.30;;;1.23;;
7835;SDS011;3963;42.658;23.298;2023-10-09T08:16:27;2.27;;;1.47;;
7835;SDS011;3963;42.658;23.298;2023-10-09T08:19:03;2.37;;;1.60;;
7835;SDS011;3963;42.658;23.298;2023-10-09T08:21:53;2.43;;;1.60;;
7835;SDS011;3963;42.658;23.298;2023-10-09T08:24:42;2.57;;;1.70;;
7835;SDS011;3963;42.658;23.298;2023-10-09T08:27:17;2.33;;;1.60;;
7835;SDS011;3963;42.658;23.298;2023-10-09T08:30:10;4.30;;;1.47;;
7835;SDS011;3963;42.658;23.298;2023-10-09T08:32:53;2.53;;;1.63;;
7835;SDS011;3963;42.658;23.298;2023-10-09T08:35:27;4.20;;;1.77;;
7835;SDS011;3963;42.658;23.298;2023-10-09T08:37:56;3.83;;;1.50;;
7835;SDS011;3963;42.658;23.298;2023-10-09T08:40:27;2.00;;;1.23;;
7835;SDS011;3963;42.658;23.298;2023-10-09T08:42:56;1.70;;;1.30;;
7835;SDS011;3963;42.658;23.298;2023-10-09T08:45:23;3.83;;;1.30;;
7835;SDS011;3963;42.658;23.298;2023-10-09T08:47:53;2.10;;;1.33;;
7835;SDS011;3963;42.658;23.298;2023-10-09T08:50:20;5.07;;;1.47;;
7835;SDS011;3963;42.658;23.298;2023-10-09T08:52:48;7.13;;;1.73;;
7835;SDS011;3963;42.658;23.298;2023-10-09T08:55:16;2.90;;;1.57;;
7835;SDS011;3963;42.658;23.298;2023-10-09T08:57:43;3.50;;;1.53;;
7835;SDS011;3963;42.658;23.298;2023-10-09T09:00:16;2.40;;;1.40;;
7835;SDS011;3963;42.658;23.298;2023-10-09T09:02:46;3.53;;;1.30;;
7835;SDS011;3963;42.658;23.298;2023-10-09T09:05:16;1.30;;;1.20;;
7835;SDS011;3963;42.658;23.298;2023-10-09T09:07:43;3.10;;;1.53;;
7835;SDS011;3963;42.658;23.298;2023-10-09T09:10:11;2.60;;;1.50;;
7835;SDS011;3963;42.658;23.298;2023-10-09T09:12:45;2.97;;;1.20;;
7835;SDS011;3963;42.658;23.298;2023-10-09T09:15:13;2.93;;;1.57;;
7835;SDS011;3963;42.658;23.298;2023-10-09T09:17:43;3.70;;;1.70;;
7835;SDS011;3963;42.658;23.298;2023-10-09T09:20:20;2.07;;;1.60;;
7835;SDS011;3963;42.658;23.298;2023-10-09T09:22:51;13.30;;;1.93;;
7835;SDS011;3963;42.658;23.298;2023-10-09T09:25:19;2.23;;;1.50;;
7835;SDS011;3963;42.658;23.298;2023-10-09T09:27:49;2.27;;;1.43;;
7835;SDS011;3963;42.658;23.298;2023-10-09T09:30:23;4.57;;;1.70;;
7835;SDS011;3963;42.658;23.298;2023-10-09T09:32:51;4.43;;;1.53;;
7835;SDS011;3963;42.658;23.298;2023-10-09T09:35:37;2.13;;;1.40;;
7835;SDS011;3963;42.658;23.298;2023-10-09T09:38:04;1.93;;;1.30;;
7835;SDS011;3963;42.658;23.298;2023-10-09T09:40:33;2.30;;;1.57;;
7835;SDS011;3963;42.658;23.298;2023-10-09T09:43:06;6.97;;;1.30;;
7835;SDS011;3963;42.658;23.298;2023-10-09T09:45:42;3.20;;;1.87;;
7835;SDS011;3963;42.658;23.298;2023-10-09T09:48:14;4.37;;;1.67;;
7835;SDS011;3963;42.658;23.298;2023-10-09T09:50:41;4.30;;;1.60;;
7835;SDS011;3963;42.658;23.298;2023-10-09T09:53:10;3.00;;;1.40;;
7835;SDS011;3963;42.658;23.298;2023-10-09T09:55:44;2.60;;;1.50;;
7835;SDS011;3963;42.658;23.298;2023-10-09T09:58:17;1.60;;;1.37;;
7835;SDS011;3963;42.658;23.298;2023-10-09T10:00:45;4.77;;;1.60;;
7835;SDS011;3963;42.658;23.298;2023-10-09T10:03:18;1.67;;;1.30;;
7835;SDS011;3963;42.658;23.298;2023-10-09T10:05:45;2.20;;;1.40;;
7835;SDS011;3963;42.658;23.298;2023-10-09T10:08:14;2.40;;;1.60;;
7835;SDS011;3963;42.658;23.298;2023-10-09T10:10:46;1.30;;;1.20;;
7835;SDS011;3963;42.658;23.298;2023-10-09T10:13:18;3.77;;;1.50;;
7835;SDS011;3963;42.658;23.298;2023-10-09T10:16:05;4.13;;;1.93;;
7835;SDS011;3963;42.658;23.298;2023-10-09T10:18:54;3.10;;;1.70;;
7835;SDS011;3963;42.658;23.298;2023-10-09T10:21:24;5.67;;;1.80;;
7835;SDS011;3963;42.658;23.298;2023-10-09T10:24:04;3.30;;;1.60;;
7835;SDS011;3963;42.658;23.298;2023-10-09T10:26:33;3.67;;;1.43;;
7835;SDS011;3963;42.658;23.298;2023-10-09T10:29:15;5.17;;;2.37;;
7835;SDS011;3963;42.658;23.298;2023-10-09T10:31:52;4.43;;;1.70;;
7835;SDS011;3963;42.658;23.298;2023-10-09T10:34:19;3.50;;;1.50;;
7835;SDS011;3963;42.658;23.298;2023-10-09T10:36:49;3.63;;;1.40;;
7835;SDS011;3963;42.658;23.298;2023-10-09T10:39:18;2.13;;;1.20;;
7835;SDS011;3963;42.658;23.298;2023-10-09T10:41:55;3.40;;;1.30;;
7835;SDS011;3963;42.658;23.298;2023-10-09T10:44:26;1.83;;;1.50;;
7835;SDS011;3963;42.658;23.298;2023-10-09T10:47:07;2.00;;;1.50;;
7835;SDS011;3963;42.658;23.298;2023-10-09T10:49:47;3.53;;;1.60;;
7835;SDS011;3963;42.658;23.298;2023-10-09T10:52:20;2.57;;;1.63;;
7835;SDS011;3963;42.658;23.298;2023-10-09T10:54:47;3.50;;;1.40;;
7835;SDS011;3963;42.658;23.298;2023-10-09T10:57:34;3.00;;;1.57;;
7835;SDS011;3963;42.658;23.298;2023-10-09T11:00:18;3.27;;;1.57;;
7835;SDS011;3963;42.658;23.298;2023-10-09T11:02:58;4.77;;;1.60;;
7835;SDS011;3963;42.658;23.298;2023-10-09T11:05:38;1.93;;;1.20;;
7835;SDS011;3963;42.658;23.298;2023-10-09T11:08:08;2.00;;;1.40;;
7835;SDS011;3963;42.658;23.298;2023-10-09T11:10:35;2.40;;;1.40;;
7835;SDS011;3963;42.658;23.298;2023-10-09T11:13:26;2.07;;;1.67;;
7835;SDS011;3963;42.658;23.298;2023-10-09T11:15:58;3.37;;;1.73;;
7835;SDS011;3963;42.658;23.298;2023-10-09T11:18:39;2.57;;;1.33;;
7835;SDS011;3963;42.658;23.298;2023-10-09T11:21:08;2.30;;;1.53;;
7835;SDS011;3963;42.658;23.298;2023-10-09T11:23:56;4.03;;;1.60;;
7835;SDS011;3963;42.658;23.298;2023-10-09T11:26:47;1.77;;;1.30;;
7835;SDS011;3963;42.658;23.298;2023-10-09T11:29:21;3.40;;;1.67;;
7835;SDS011;3963;42.658;23.298;2023-10-09T11:32:15;4.17;;;1.80;;
7835;SDS011;3963;42.658;23.298;2023-10-09T11:34:43;3.53;;;1.80;;
7835;SDS011;3963;42.658;23.298;2023-10-09T11:37:17;2.13;;;1.60;;
7835;SDS011;3963;42.658;23.298;2023-10-09T11:39:57;3.17;;;1.97;;
7835;SDS011;3963;42.658;23.298;2023-10-09T11:42:23;3.57;;;1.93;;
7835;SDS011;3963;42.658;23.298;2023-10-09T11:45:05;2.30;;;1.70;;
7835;SDS011;3963;42.658;23.298;2023-10-09T11:47:44;2.67;;;1.87;;
7835;SDS011;3963;42.658;23.298;2023-10-09T11:50:19;4.90;;;1.77;;
7835;SDS011;3963;42.658;23.298;2023-10-09T11:52:57;4.73;;;2.73;;
7835;SDS011;3963;42.658;23.298;2023-10-09T11:55:34;4.03;;;2.20;;
7835;SDS011;3963;42.658;23.298;2023-10-09T11:58:01;3.67;;;2.83;;
7835;SDS011;3963;42.658;23.298;2023-10-09T12:00:31;3.70;;;2.30;;
7835;SDS011;3963;42.658;23.298;2023-10-09T12:03:09;3.40;;;1.70;;
7835;SDS011;3963;42.658;23.298;2023-10-09T12:05:36;2.80;;;1.60;;
7835;SDS011;3963;42.658;23.298;2023-10-09T12:08:02;3.00;;;1.67;;
7835;SDS011;3963;42.658;23.298;2023-10-09T12:10:33;4.33;;;1.57;;
7835;SDS011;3963;42.658;23.298;2023-10-09T12:13:03;3.40;;;1.27;;
7835;SDS011;3963;42.658;23.298;2023-10-09T12:15:29;5.63;;;1.63;;
7835;SDS011;3963;42.658;23.298;2023-10-09T12:18:04;4.70;;;1.80;;
7835;SDS011;3963;42.658;23.298;2023-10-09T12:20:32;2.33;;;1.50;;
7835;SDS011;3963;42.658;23.298;2023-10-09T12:22:59;4.27;;;1.43;;
7835;SDS011;3963;42.658;23.298;2023-10-09T12:25:26;3.00;;;1.30;;
7835;SDS011;3963;42.658;23.298;2023-10-09T12:27:56;3.43;;;1.20;;
7835;SDS011;3963;42.658;23.298;2023-10-09T12:30:23;6.40;;;1.57;;
7835;SDS011;3963;42.658;23.298;2023-10-09T12:32:52;4.43;;;1.57;;
7835;SDS011;3963;42.658;23.298;2023-10-09T12:35:21;3.70;;;1.30;;
7835;SDS011;3963;42.658;23.298;2023-10-09T12:37:49;4.23;;;1.43;;
7835;SDS011;3963;42.658;23.298;2023-10-09T12:40:16;6.47;;;2.00;;
7835;SDS011;3963;42.658;23.298;2023-10-09T12:42:49;3.53;;;1.57;;
7835;SDS011;3963;42.658;23.298;2023-10-09T12:45:15;2.77;;;1.33;;
7835;SDS011;3963;42.658;23.298;2023-10-09T12:47:43;6.50;;;1.63;;
7835;SDS011;3963;42.658;23.298;2023-10-09T12:50:11;5.13;;;1.30;;
7835;SDS011;3963;42.658;23.298;2023-10-09T12:52:40;2.57;;;1.63;;
7835;SDS011;3963;42.658;23.298;2023-10-09T12:55:07;4.97;;;2.00;;
7835;SDS011;3963;42.658;23.298;2023-10-09T12:57:44;3.10;;;1.67;;
7835;SDS011;3963;42.658;23.298;2023-10-09T13:00:13;4.40;;;1.70;;
7835;SDS011;3963;42.658;23.298;2023-10-09T13:02:50;6.77;;;2.30;;
7835;SDS011;3963;42.658;23.298;2023-10-09T13:05:17;2.27;;;1.60;;
7835;SDS011;3963;42.658;23.298;2023-10-09T13:07:52;3.47;;;1.77;;
7835;SDS011;3963;42.658;23.298;2023-10-09T13:10:21;2.67;;;1.67;;
7835;SDS011;3963;42.658;23.298;2023-10-09T13:12:49;2.00;;;1.40;;
7835;SDS011;3963;42.658;23.298;2023-10-09T13:15:20;3.93;;;1.47;;
7835;SDS011;3963;42.658;23.298;2023-10-09T13:17:46;2.27;;;1.50;;
7835;SDS011;3963;42.658;23.298;2023-10-09T13:20:13;3.03;;;1.60;;
7835;SDS011;3963;42.658;23.298;2023-10-09T13:22:40;8.33;;;2.10;;
7835;SDS011;3963;42.658;23.298;2023-10-09T13:25:09;4.83;;;1.50;;
7835;SDS011;3963;42.658;23.298;2023-10-09T13:27:42;3.17;;;1.70;;
7835;SDS011;3963;42.658;23.298;2023-10-09T13:30:16;3.73;;;1.70;;
7835;SDS011;3963;42.658;23.298;2023-10-09T13:32:47;2.37;;;1.40;;
7835;SDS011;3963;42.658;23.298;2023-10-09T13:35:14;7.67;;;1.70;;
7835;SDS011;3963;42.658;23.298;2023-10-09T13:37:42;2.70;;;1.57;;
7835;SDS011;3963;42.658;23.298;2023-10-09T13:40:10;2.87;;;1.80;;
7835;SDS011;3963;42.658;23.298;2023-10-09T13:42:51;3.60;;;1.73;;
7835;SDS011;3963;42.658;23.298;2023-10-09T13:45:18;2.20;;;1.50;;
7835;SDS011;3963;42.658;23.298;2023-10-09T13:47:52;3.03;;;2.07;;
7835;SDS011;3963;42.658;23.298;2023-10-09T13:50:19;2.63;;;1.73;;
7835;SDS011;3963;42.658;23.298;2023-10-09T13:52:47;3.03;;;1.93;;
7835;SDS011;3963;42.658;23.298;2023-10-09T13:55:15;2.33;;;1.77;;
7835;SDS011;3963;42.658;23.298;2023-10-09T13:57:42;3.63;;;1.50;;
7835;SDS011;3963;42.658;23.298;2023-10-09T14:00:11;3.57;;;1.93;;
7835;SDS011;3963;42.658;23.298;2023-10-09T14:02:40;5.37;;;1.70;;
7835;SDS011;3963;42.658;23.298;2023-10-09T14:05:08;3.30;;;1.70;;
7835;SDS011;3963;42.658;23.298;2023-10-09T14:07:34;3.40;;;2.00;;
7835;SDS011;3963;42.658;23.298;2023-10-09T14:10:01;3.53;;;1.83;;
7835;SDS011;3963;42.658;23.298;2023-10-09T14:12:43;3.73;;;2.03;;
7835;SDS011;3963;42.658;23.298;2023-10-09T14:15:10;4.93;;;2.60;;
7835;SDS011;3963;42.658;23.298;2023-10-09T14:17:42;8.27;;;2.43;;
7835;SDS011;3963;42.658;23.298;2023-10-09T14:20:09;6.63;;;2.23;;
7835;SDS011;3963;42.658;23.298;2023-10-09T14:22:49;5.10;;;2.60;;
7835;SDS011;3963;42.658;23.298;2023-10-09T14:25:17;10.57;;;3.43;;
7835;SDS011;3963;42.658;23.298;2023-10-09T14:27:47;11.60;;;7.17;;
7835;SDS011;3963;42.658;23.298;2023-10-09T14:30:14;10.13;;;5.97;;
7835;SDS011;3963;42.658;23.298;2023-10-09T14:32:48;7.27;;;4.27;;
7835;SDS011;3963;42.658;23.298;2023-10-09T14:35:16;8.60;;;3.27;;
7835;SDS011;3963;42.658;23.298;2023-10-09T14:37:46;6.90;;;2.83;;
7835;SDS011;3963;42.658;23.298;2023-10-09T14:40:13;6.43;;;2.80;;
7835;SDS011;3963;42.658;23.298;2023-10-09T14:42:45;10.70;;;3.20;;
7835;SDS011;3963;42.658;23.298;2023-10-09T14:45:14;4.77;;;2.30;;
7835;SDS011;3963;42.658;23.298;2023-10-09T14:47:41;4.33;;;2.37;;
7835;SDS011;3963;42.658;23.298;2023-10-09T14:50:07;5.03;;;2.43;;
7835;SDS011;3963;42.658;23.298;2023-10-09T14:52:38;14.33;;;4.50;;
7835;SDS011;3963;42.658;23.298;2023-10-09T14:55:06;5.37;;;3.30;;
7835;SDS011;3963;42.658;23.298;2023-10-09T14:57:33;8.30;;;5.93;;
7835;SDS011;3963;42.658;23.298;2023-10-09T15:00:00;6.53;;;2.50;;
7835;SDS011;3963;42.658;23.298;2023-10-09T15:02:28;7.17;;;3.23;;
7835;SDS011;3963;42.658;23.298;2023-10-09T15:04:54;5.13;;;2.80;;
7835;SDS011;3963;42.658;23.298;2023-10-09T15:07:20;6.60;;;2.50;;
7835;SDS011;3963;42.658;23.298;2023-10-09T15:09:47;6.13;;;2.43;;
7835;SDS011;3963;42.658;23.298;2023-10-09T15:12:16;4.53;;;2.90;;
7835;SDS011;3963;42.658;23.298;2023-10-09T15:14:42;8.10;;;3.27;;
7835;SDS011;3963;42.658;23.298;2023-10-09T15:17:10;10.23;;;2.93;;
7835;SDS011;3963;42.658;23.298;2023-10-09T15:19:37;9.97;;;2.80;;
7835;SDS011;3963;42.658;23.298;2023-10-09T15:22:04;7.90;;;2.87;;
7835;SDS011;3963;42.658;23.298;2023-10-09T15:24:35;11.93;;;2.77;;
7835;SDS011;3963;42.658;23.298;2023-10-09T15:27:01;6.63;;;2.70;;
7835;SDS011;3963;42.658;23.298;2023-10-09T15:29:28;7.17;;;3.83;;
7835;SDS011;3963;42.658;23.298;2023-10-09T15:31:56;5.77;;;3.33;;
7835;SDS011;3963;42.658;23.298;2023-10-09T15:34:25;4.77;;;2.73;;